sensor_id;sensor_type;location;lat;lon;timestamp;pressure;altitude;pressure_sealevel;temperature;humidity
55466;BME280;41329;41.594;23.810;2022-07-29T00:01:34;95343.03;;;22.69;64.02
55466;BME280;41329;41.594;23.810;2022-07-29T00:04:00;95327.22;;;22.59;63.94
55466;BME280;41329;41.594;23.810;2022-07-29T00:06:25;95339.41;;;22.68;63.99
55466;BME280;41329;41.594;23.810;2022-07-29T00:08:51;95335.78;;;22.68;63.88
55466;BME280;41329;41.594;23.810;2022-07-29T00:11:16;95334.44;;;22.60;64.21
55466;BME280;41329;41.594;23.810;2022-07-29T00:13:42;95324.94;;;22.54;64.33
55466;BME280;41329;41.594;23.810;2022-07-29T00:16:07;95319.88;;;22.49;64.28
55466;BME280;41329;41.594;23.810;2022-07-29T00:18:33;95324.25;;;22.50;63.87
55466;BME280;41329;41.594;23.810;2022-07-29T00:20:59;95331.28;;;22.58;63.91
55466;BME280;41329;41.594;23.810;2022-07-29T00:23:24;95326.88;;;22.57;64.06
55466;BME280;41329;41.594;23.810;2022-07-29T00:25:49;95318.28;;;22.48;64.15
55466;BME280;41329;41.594;23.810;2022-07-29T00:28:15;95327.88;;;22.50;64.26
55466;BME280;41329;41.594;23.810;2022-07-29T00:30:40;95313.97;;;22.43;64.12
55466;BME280;41329;41.594;23.810;2022-07-29T00:33:08;95331.00;;;22.40;64.05
55466;BME280;41329;41.594;23.810;2022-07-29T00:35:34;95338.31;;;22.37;64.03
55466;BME280;41329;41.594;23.810;2022-07-29T00:38:13;95300.16;;;22.20;64.09
55466;BME280;41329;41.594;23.810;2022-07-29T00:40:39;95314.47;;;22.26;64.02
55466;BME280;41329;41.594;23.810;2022-07-29T00:43:04;95319.13;;;22.32;64.05
55466;BME280;41329;41.594;23.810;2022-07-29T00:45:30;95327.56;;;22.32;63.98
55466;BME280;41329;41.594;23.810;2022-07-29T00:47:56;95312.91;;;22.25;63.93
55466;BME280;41329;41.594;23.810;2022-07-29T00:50:22;95317.28;;;22.26;64.16
55466;BME280;41329;41.594;23.810;2022-07-29T00:52:48;95309.41;;;22.21;64.39
55466;BME280;41329;41.594;23.810;2022-07-29T00:55:15;95313.13;;;22.18;64.45
55466;BME280;41329;41.594;23.810;2022-07-29T00:57:42;95314.34;;;22.17;64.85
55466;BME280;41329;41.594;23.810;2022-07-29T01:00:11;95317.16;;;22.17;64.93
55466;BME280;41329;41.594;23.810;2022-07-29T01:02:37;95308.03;;;22.13;64.91
55466;BME280;41329;41.594;23.810;2022-07-29T01:05:04;95324.03;;;22.16;65.10
55466;BME280;41329;41.594;23.810;2022-07-29T01:07:35;95320.41;;;22.15;64.73
55466;BME280;41329;41.594;23.810;2022-07-29T01:10:03;95315.34;;;22.10;64.68
55466;BME280;41329;41.594;23.810;2022-07-29T01:12:30;95316.59;;;22.09;64.86
55466;BME280;41329;41.594;23.810;2022-07-29T01:15:00;95279.97;;;21.81;64.55
55466;BME280;41329;41.594;23.810;2022-07-29T01:20:12;95316.25;;;22.07;64.90
55466;BME280;41329;41.594;23.810;2022-07-29T01:25:48;95315.56;;;22.03;64.86
55466;BME280;41329;41.594;23.810;2022-07-29T01:31:16;95304.94;;;21.95;65.12
55466;BME280;41329;41.594;23.810;2022-07-29T01:33:50;95306.94;;;21.94;65.10
55466;BME280;41329;41.594;23.810;2022-07-29T01:36:25;95303.22;;;21.85;65.21
55466;BME280;41329;41.594;23.810;2022-07-29T01:39:19;95307.06;;;21.91;64.85
55466;BME280;41329;41.594;23.810;2022-07-29T01:44:50;95315.25;;;21.85;64.89
55466;BME280;41329;41.594;23.810;2022-07-29T01:47:21;95308.78;;;21.72;64.98
55466;BME280;41329;41.594;23.810;2022-07-29T01:49:51;95310.09;;;21.68;65.03
55466;BME280;41329;41.594;23.810;2022-07-29T01:52:38;95313.78;;;21.65;65.31
55466;BME280;41329;41.594;23.810;2022-07-29T01:55:11;95304.66;;;21.61;65.57
55466;BME280;41329;41.594;23.810;2022-07-29T01:57:39;95294.91;;;21.49;65.55
55466;BME280;41329;41.594;23.810;2022-07-29T02:00:06;95300.16;;;21.47;65.87
55466;BME280;41329;41.594;23.810;2022-07-29T02:02:33;95302.56;;;21.49;65.75
55466;BME280;41329;41.594;23.810;2022-07-29T02:05:02;95310.44;;;21.54;65.81
55466;BME280;41329;41.594;23.810;2022-07-29T02:07:29;95297.03;;;21.45;66.13
55466;BME280;41329;41.594;23.810;2022-07-29T02:09:57;95300.53;;;21.49;66.24
55466;BME280;41329;41.594;23.810;2022-07-29T02:12:24;95298.50;;;21.50;66.19
55466;BME280;41329;41.594;23.810;2022-07-29T02:14:53;95301.66;;;21.52;66.14
55466;BME280;41329;41.594;23.810;2022-07-29T02:17:29;95313.91;;;21.45;66.30
55466;BME280;41329;41.594;23.810;2022-07-29T02:19:58;95314.69;;;21.46;65.93
55466;BME280;41329;41.594;23.810;2022-07-29T02:22:26;95314.91;;;21.39;65.67
55466;BME280;41329;41.594;23.810;2022-07-29T02:24:54;95313.81;;;21.33;65.77
55466;BME280;41329;41.594;23.810;2022-07-29T02:27:20;95328.09;;;21.26;65.87
55466;BME280;41329;41.594;23.810;2022-07-29T02:29:49;95323.34;;;21.23;66.14
55466;BME280;41329;41.594;23.810;2022-07-29T02:32:16;95299.53;;;21.11;66.47
55466;BME280;41329;41.594;23.810;2022-07-29T02:34:43;95317.81;;;21.19;66.35
55466;BME280;41329;41.594;23.810;2022-07-29T02:37:11;95303.91;;;21.12;66.71
55466;BME280;41329;41.594;23.810;2022-07-29T02:39:39;95300.56;;;21.17;66.67
55466;BME280;41329;41.594;23.810;2022-07-29T02:42:08;95311.00;;;21.17;66.74
55466;BME280;41329;41.594;23.810;2022-07-29T02:44:35;95299.97;;;21.10;66.62
55466;BME280;41329;41.594;23.810;2022-07-29T02:47:15;95291.25;;;21.04;66.78
55466;BME280;41329;41.594;23.810;2022-07-29T02:49:52;95290.13;;;21.02;66.76
55466;BME280;41329;41.594;23.810;2022-07-29T02:54:52;95314.38;;;21.12;67.06
55466;BME280;41329;41.594;23.810;2022-07-29T02:57:43;95295.38;;;21.00;66.91
55466;BME280;41329;41.594;23.810;2022-07-29T03:00:08;95312.44;;;21.09;66.96
55466;BME280;41329;41.594;23.810;2022-07-29T03:02:40;95311.66;;;21.08;67.12
55466;BME280;41329;41.594;23.810;2022-07-29T03:05:09;95296.97;;;21.01;67.12
55466;BME280;41329;41.594;23.810;2022-07-29T03:07:36;95296.88;;;21.04;67.36
55466;BME280;41329;41.594;23.810;2022-07-29T03:10:03;95309.63;;;21.09;67.56
55466;BME280;41329;41.594;23.810;2022-07-29T03:12:30;95300.56;;;21.01;67.29
55466;BME280;41329;41.594;23.810;2022-07-29T03:14:57;95302.16;;;21.02;67.22
55466;BME280;41329;41.594;23.810;2022-07-29T03:17:24;95315.59;;;21.11;67.09
55466;BME280;41329;41.594;23.810;2022-07-29T03:19:50;95320.44;;;21.10;66.93
55466;BME280;41329;41.594;23.810;2022-07-29T03:22:16;95319.66;;;21.10;66.89
55466;BME280;41329;41.594;23.810;2022-07-29T03:24:41;95321.22;;;21.11;67.32
55466;BME280;41329;41.594;23.810;2022-07-29T03:27:07;95324.03;;;21.11;66.97
55466;BME280;41329;41.594;23.810;2022-07-29T03:29:32;95326.84;;;21.11;67.08
55466;BME280;41329;41.594;23.810;2022-07-29T03:31:58;95324.47;;;21.09;66.93
55466;BME280;41329;41.594;23.810;2022-07-29T03:34:23;95317.88;;;21.00;67.46
55466;BME280;41329;41.594;23.810;2022-07-29T03:36:49;95340.13;;;21.10;67.64
55466;BME280;41329;41.594;23.810;2022-07-29T03:39:18;95329.41;;;21.05;67.28
55466;BME280;41329;41.594;23.810;2022-07-29T03:41:48;95336.53;;;21.10;66.90
55466;BME280;41329;41.594;23.810;2022-07-29T03:44:16;95333.34;;;21.08;66.74
55466;BME280;41329;41.594;23.810;2022-07-29T03:46:44;95341.78;;;21.08;66.75
55466;BME280;41329;41.594;23.810;2022-07-29T03:49:11;95348.75;;;21.03;66.72
55466;BME280;41329;41.594;23.810;2022-07-29T03:51:39;95344.16;;;20.93;67.15
55466;BME280;41329;41.594;23.810;2022-07-29T03:54:05;95346.53;;;20.95;67.67
55466;BME280;41329;41.594;23.810;2022-07-29T03:56:34;95340.13;;;20.94;68.24
55466;BME280;41329;41.594;23.810;2022-07-29T03:59:02;95345.81;;;20.91;67.60
55466;BME280;41329;41.594;23.810;2022-07-29T04:01:29;95354.97;;;20.95;68.01
55466;BME280;41329;41.594;23.810;2022-07-29T04:03:55;95357.78;;;20.95;67.86
55466;BME280;41329;41.594;23.810;2022-07-29T04:06:21;95352.47;;;20.81;68.20
55466;BME280;41329;41.594;23.810;2022-07-29T04:08:46;95350.81;;;20.83;67.87
55466;BME280;41329;41.594;23.810;2022-07-29T04:11:12;95333.38;;;20.72;68.08
55466;BME280;41329;41.594;23.810;2022-07-29T04:13:38;95354.41;;;20.84;68.17
55466;BME280;41329;41.594;23.810;2022-07-29T04:16:03;95356.34;;;20.87;68.56
55466;BME280;41329;41.594;23.810;2022-07-29T04:18:29;95350.72;;;20.87;68.61
55466;BME280;41329;41.594;23.810;2022-07-29T04:20:54;95344.84;;;20.81;68.85
55466;BME280;41329;41.594;23.810;2022-07-29T04:23:20;95360.38;;;20.86;69.05
55466;BME280;41329;41.594;23.810;2022-07-29T04:25:45;95357.56;;;20.86;68.71
55466;BME280;41329;41.594;23.810;2022-07-29T04:28:11;95360.28;;;20.89;68.87
55466;BME280;41329;41.594;23.810;2022-07-29T04:30:37;95358.19;;;20.77;69.12
55466;BME280;41329;41.594;23.810;2022-07-29T04:33:04;95367.78;;;20.80;69.26
55466;BME280;41329;41.594;23.810;2022-07-29T04:35:30;95360.28;;;20.89;69.27
55466;BME280;41329;41.594;23.810;2022-07-29T04:37:56;95355.88;;;20.92;69.37
55466;BME280;41329;41.594;23.810;2022-07-29T04:40:21;95357.34;;;20.96;69.43
55466;BME280;41329;41.594;23.810;2022-07-29T04:42:47;95357.97;;;21.04;69.22
55466;BME280;41329;41.594;23.810;2022-07-29T04:45:12;95365.44;;;21.10;69.62
55466;BME280;41329;41.594;23.810;2022-07-29T04:47:38;95368.63;;;21.12;69.21
55466;BME280;41329;41.594;23.810;2022-07-29T04:50:04;95364.06;;;21.02;69.25
55466;BME280;41329;41.594;23.810;2022-07-29T04:52:31;95363.69;;;21.00;69.59
55466;BME280;41329;41.594;23.810;2022-07-29T04:54:56;95368.34;;;21.07;69.51
55466;BME280;41329;41.594;23.810;2022-07-29T04:57:22;95371.88;;;21.11;69.52
55466;BME280;41329;41.594;23.810;2022-07-29T04:59:47;95356.94;;;21.14;69.36
55466;BME280;41329;41.594;23.810;2022-07-29T05:02:13;95364.31;;;21.24;68.93
55466;BME280;41329;41.594;23.810;2022-07-29T05:04:39;95358.84;;;21.17;69.10
55466;BME280;41329;41.594;23.810;2022-07-29T05:07:04;95329.84;;;21.04;68.88
55466;BME280;41329;41.594;23.810;2022-07-29T05:09:30;95353.88;;;21.24;68.68
55466;BME280;41329;41.594;23.810;2022-07-29T05:11:57;95363.44;;;21.27;68.80
55466;BME280;41329;41.594;23.810;2022-07-29T05:14:23;95361.94;;;21.38;69.19
55466;BME280;41329;41.594;23.810;2022-07-29T05:16:48;95357.13;;;21.39;68.81
55466;BME280;41329;41.594;23.810;2022-07-29T05:19:16;95366.00;;;21.53;68.69
55466;BME280;41329;41.594;23.810;2022-07-29T05:21:42;95370.97;;;21.62;68.66
55466;BME280;41329;41.594;23.810;2022-07-29T05:24:07;95358.25;;;21.57;68.11
55466;BME280;41329;41.594;23.810;2022-07-29T05:26:33;95362.47;;;21.65;68.15
55466;BME280;41329;41.594;23.810;2022-07-29T05:28:59;95359.97;;;21.67;67.97
55466;BME280;41329;41.594;23.810;2022-07-29T05:31:24;95319.88;;;21.47;68.15
55466;BME280;41329;41.594;23.810;2022-07-29T05:33:49;95350.03;;;21.63;68.38
55466;BME280;41329;41.594;23.810;2022-07-29T05:36:15;95371.00;;;21.78;68.44
55466;BME280;41329;41.594;23.810;2022-07-29T05:38:40;95362.53;;;21.78;68.70
55466;BME280;41329;41.594;23.810;2022-07-29T05:41:06;95368.06;;;21.81;68.42
55466;BME280;41329;41.594;23.810;2022-07-29T05:43:32;95357.00;;;21.74;68.33
55466;BME280;41329;41.594;23.810;2022-07-29T05:45:58;95361.13;;;21.86;67.87
55466;BME280;41329;41.594;23.810;2022-07-29T05:48:24;95327.97;;;21.61;67.54
55466;BME280;41329;41.594;23.810;2022-07-29T05:50:49;95352.16;;;21.59;67.82
55466;BME280;41329;41.594;23.810;2022-07-29T05:53:15;95370.13;;;21.81;68.10
55466;BME280;41329;41.594;23.810;2022-07-29T05:55:41;95375.53;;;21.88;68.85
55466;BME280;41329;41.594;23.810;2022-07-29T05:58:06;95368.06;;;21.81;68.82
55466;BME280;41329;41.594;23.810;2022-07-29T06:00:32;95368.00;;;21.85;69.07
55466;BME280;41329;41.594;23.810;2022-07-29T06:02:57;95366.94;;;21.79;68.92
55466;BME280;41329;41.594;23.810;2022-07-29T06:05:23;95373.78;;;21.94;68.53
55466;BME280;41329;41.594;23.810;2022-07-29T06:07:48;95372.63;;;22.07;68.21
55466;BME280;41329;41.594;23.810;2022-07-29T06:10:14;95366.75;;;22.14;67.52
55466;BME280;41329;41.594;23.810;2022-07-29T06:12:40;95356.22;;;22.02;67.94
55466;BME280;41329;41.594;23.810;2022-07-29T06:15:06;95365.06;;;22.17;68.05
55466;BME280;41329;41.594;23.810;2022-07-29T06:17:31;95360.03;;;22.24;67.51
55466;BME280;41329;41.594;23.810;2022-07-29T06:19:57;95366.91;;;22.23;67.12
55466;BME280;41329;41.594;23.810;2022-07-29T06:22:22;95368.53;;;22.37;67.03
55466;BME280;41329;41.594;23.810;2022-07-29T06:24:49;95362.50;;;22.51;66.76
55466;BME280;41329;41.594;23.810;2022-07-29T06:27:14;95363.19;;;22.55;66.58
55466;BME280;41329;41.594;23.810;2022-07-29T06:29:39;95365.59;;;22.69;66.28
55466;BME280;41329;41.594;23.810;2022-07-29T06:32:05;95333.88;;;22.65;66.79
55466;BME280;41329;41.594;23.810;2022-07-29T06:34:31;95360.41;;;23.05;65.90
55466;BME280;41329;41.594;23.810;2022-07-29T06:36:56;95317.53;;;22.85;64.89
55466;BME280;41329;41.594;23.810;2022-07-29T06:39:21;95366.88;;;23.31;64.73
55466;BME280;41329;41.594;23.810;2022-07-29T06:41:48;95350.72;;;23.19;64.24
55466;BME280;41329;41.594;23.810;2022-07-29T06:44:14;95359.09;;;23.35;63.62
55466;BME280;41329;41.594;23.810;2022-07-29T06:46:40;95348.03;;;23.40;63.79
55466;BME280;41329;41.594;23.810;2022-07-29T06:49:06;95338.97;;;23.45;63.31
55466;BME280;41329;41.594;23.810;2022-07-29T06:51:32;95359.22;;;23.78;62.64
55466;BME280;41329;41.594;23.810;2022-07-29T06:53:58;95348.81;;;23.87;61.80
55466;BME280;41329;41.594;23.810;2022-07-29T06:56:24;95315.16;;;23.80;60.89
55466;BME280;41329;41.594;23.810;2022-07-29T06:58:50;95355.38;;;24.18;60.27
55466;BME280;41329;41.594;23.810;2022-07-29T07:01:15;95351.31;;;24.19;59.48
55466;BME280;41329;41.594;23.810;2022-07-29T07:03:41;95345.53;;;24.23;59.36
55466;BME280;41329;41.594;23.810;2022-07-29T07:06:07;95346.06;;;24.30;60.24
55466;BME280;41329;41.594;23.810;2022-07-29T07:08:32;95340.97;;;24.47;59.58
55466;BME280;41329;41.594;23.810;2022-07-29T07:10:58;95337.69;;;24.48;58.15
55466;BME280;41329;41.594;23.810;2022-07-29T07:13:24;95338.22;;;24.56;58.82
55466;BME280;41329;41.594;23.810;2022-07-29T07:15:50;95327.00;;;24.65;59.00
55466;BME280;41329;41.594;23.810;2022-07-29T07:18:17;95332.91;;;24.79;58.20
55466;BME280;41329;41.594;23.810;2022-07-29T07:20:44;95322.97;;;24.75;57.16
55466;BME280;41329;41.594;23.810;2022-07-29T07:23:10;95327.44;;;24.85;57.32
55466;BME280;41329;41.594;23.810;2022-07-29T07:25:36;95323.66;;;24.88;56.95
55466;BME280;41329;41.594;23.810;2022-07-29T07:28:02;95315.56;;;25.08;58.26
55466;BME280;41329;41.594;23.810;2022-07-29T07:30:28;95329.47;;;25.24;57.00
55466;BME280;41329;41.594;23.810;2022-07-29T07:32:54;95336.31;;;25.35;56.53
55466;BME280;41329;41.594;23.810;2022-07-29T07:35:20;95332.41;;;25.51;57.07
55466;BME280;41329;41.594;23.810;2022-07-29T07:37:46;95325.69;;;25.66;56.74
55466;BME280;41329;41.594;23.810;2022-07-29T07:40:12;95336.41;;;25.71;56.17
55466;BME280;41329;41.594;23.810;2022-07-29T07:42:38;95310.75;;;25.75;55.26
55466;BME280;41329;41.594;23.810;2022-07-29T07:45:05;95313.41;;;25.87;56.10
55466;BME280;41329;41.594;23.810;2022-07-29T07:47:31;95322.00;;;25.96;54.82
55466;BME280;41329;41.594;23.810;2022-07-29T07:49:57;95318.69;;;26.16;55.23
55466;BME280;41329;41.594;23.810;2022-07-29T07:52:22;95319.75;;;26.36;55.71
55466;BME280;41329;41.594;23.810;2022-07-29T07:54:48;95319.09;;;26.50;54.90
55466;BME280;41329;41.594;23.810;2022-07-29T07:57:16;95315.78;;;26.52;54.65
55466;BME280;41329;41.594;23.810;2022-07-29T07:59:41;95316.31;;;26.59;54.88
55466;BME280;41329;41.594;23.810;2022-07-29T08:02:07;95303.47;;;26.73;55.01
55466;BME280;41329;41.594;23.810;2022-07-29T08:04:33;95308.34;;;26.90;54.27
55466;BME280;41329;41.594;23.810;2022-07-29T08:06:59;95315.25;;;26.98;53.25
55466;BME280;41329;41.594;23.810;2022-07-29T08:09:26;95318.88;;;26.99;53.59
55466;BME280;41329;41.594;23.810;2022-07-29T08:11:52;95302.56;;;27.08;53.58
55466;BME280;41329;41.594;23.810;2022-07-29T08:14:18;95304.75;;;27.13;51.81
55466;BME280;41329;41.594;23.810;2022-07-29T08:16:44;95317.91;;;27.20;51.59
55466;BME280;41329;41.594;23.810;2022-07-29T08:19:09;95319.09;;;27.28;53.48
55466;BME280;41329;41.594;23.810;2022-07-29T08:21:35;95308.13;;;27.44;52.74
55466;BME280;41329;41.594;23.810;2022-07-29T08:24:01;95309.97;;;27.56;50.55
55466;BME280;41329;41.594;23.810;2022-07-29T08:26:45;95292.44;;;27.58;52.00
55466;BME280;41329;41.594;23.810;2022-07-29T08:29:10;95301.75;;;27.82;50.67
55466;BME280;41329;41.594;23.810;2022-07-29T08:31:37;95304.44;;;27.86;51.62
55466;BME280;41329;41.594;23.810;2022-07-29T08:34:03;95304.78;;;28.02;49.94
55466;BME280;41329;41.594;23.810;2022-07-29T08:36:30;95283.97;;;27.96;49.76
55466;BME280;41329;41.594;23.810;2022-07-29T08:38:56;95289.31;;;28.18;50.66
55466;BME280;41329;41.594;23.810;2022-07-29T08:41:22;95278.25;;;28.20;49.64
55466;BME280;41329;41.594;23.810;2022-07-29T08:43:49;95295.16;;;28.38;49.26
55466;BME280;41329;41.594;23.810;2022-07-29T08:46:15;95294.03;;;28.59;50.31
55466;BME280;41329;41.594;23.810;2022-07-29T08:48:42;95276.84;;;28.68;48.52
55466;BME280;41329;41.594;23.810;2022-07-29T08:51:08;95287.47;;;28.82;48.63
55466;BME280;41329;41.594;23.810;2022-07-29T08:53:40;95294.84;;;28.88;48.41
55466;BME280;41329;41.594;23.810;2022-07-29T08:56:07;95290.28;;;28.96;48.18
55466;BME280;41329;41.594;23.810;2022-07-29T08:58:33;95279.81;;;29.02;47.36
55466;BME280;41329;41.594;23.810;2022-07-29T09:01:01;95274.22;;;29.08;47.64
55466;BME280;41329;41.594;23.810;2022-07-29T09:03:30;95281.09;;;29.16;46.94
55466;BME280;41329;41.594;23.810;2022-07-29T09:06:00;95267.44;;;29.05;45.94
55466;BME280;41329;41.594;23.810;2022-07-29T09:08:27;95274.38;;;29.19;46.45
55466;BME280;41329;41.594;23.810;2022-07-29T09:10:52;95280.25;;;29.30;46.33
55466;BME280;41329;41.594;23.810;2022-07-29T09:13:18;95281.81;;;29.31;43.92
55466;BME280;41329;41.594;23.810;2022-07-29T09:15:44;95272.19;;;29.28;44.89
55466;BME280;41329;41.594;23.810;2022-07-29T09:18:10;95278.69;;;29.29;43.38
55466;BME280;41329;41.594;23.810;2022-07-29T09:20:36;95287.28;;;29.49;43.28
55466;BME280;41329;41.594;23.810;2022-07-29T09:23:19;95274.38;;;29.68;41.40
55466;BME280;41329;41.594;23.810;2022-07-29T09:25:45;95276.66;;;29.64;42.71
55466;BME280;41329;41.594;23.810;2022-07-29T09:28:16;95269.97;;;29.67;40.20
55466;BME280;41329;41.594;23.810;2022-07-29T09:30:51;95270.03;;;29.92;42.32
55466;BME280;41329;41.594;23.810;2022-07-29T09:33:21;95269.13;;;30.01;40.13
55466;BME280;41329;41.594;23.810;2022-07-29T09:36:05;95249.72;;;30.05;40.24
55466;BME280;41329;41.594;23.810;2022-07-29T09:38:31;95263.13;;;30.19;39.28
55466;BME280;41329;41.594;23.810;2022-07-29T09:41:02;95253.09;;;30.23;38.04
55466;BME280;41329;41.594;23.810;2022-07-29T09:43:27;95256.91;;;30.40;41.28
55466;BME280;41329;41.594;23.810;2022-07-29T09:45:53;95248.97;;;30.50;40.23
55466;BME280;41329;41.594;23.810;2022-07-29T09:48:21;95251.69;;;30.64;38.33
55466;BME280;41329;41.594;23.810;2022-07-29T09:50:47;95243.63;;;30.63;38.94
55466;BME280;41329;41.594;23.810;2022-07-29T09:53:36;95246.06;;;30.70;37.63
55466;BME280;41329;41.594;23.810;2022-07-29T09:56:03;95253.06;;;30.69;38.15
55466;BME280;41329;41.594;23.810;2022-07-29T09:58:29;95253.19;;;30.80;37.80
55466;BME280;41329;41.594;23.810;2022-07-29T10:00:55;95228.47;;;30.77;35.64
55466;BME280;41329;41.594;23.810;2022-07-29T10:03:22;95245.06;;;31.04;35.80
55466;BME280;41329;41.594;23.810;2022-07-29T10:06:09;95249.00;;;31.06;36.06
55466;BME280;41329;41.594;23.810;2022-07-29T10:08:35;95231.88;;;31.12;37.23
55466;BME280;41329;41.594;23.810;2022-07-29T10:13:35;95241.56;;;31.51;37.47
55466;BME280;41329;41.594;23.810;2022-07-29T10:16:01;95244.25;;;31.71;36.44
55466;BME280;41329;41.594;23.810;2022-07-29T10:18:27;95246.44;;;31.81;36.04
55466;BME280;41329;41.594;23.810;2022-07-29T10:20:54;95237.88;;;31.87;36.04
55466;BME280;41329;41.594;23.810;2022-07-29T10:23:20;95236.38;;;31.97;34.77
55466;BME280;41329;41.594;23.810;2022-07-29T10:25:45;95217.63;;;31.90;35.57
55466;BME280;41329;41.594;23.810;2022-07-29T10:28:11;95232.25;;;32.09;34.21
55466;BME280;41329;41.594;23.810;2022-07-29T10:30:37;95217.13;;;32.03;34.80
55466;BME280;41329;41.594;23.810;2022-07-29T10:38:21;95217.00;;;32.29;33.82
55466;BME280;41329;41.594;23.810;2022-07-29T10:41:21;95210.00;;;32.35;34.33
55466;BME280;41329;41.594;23.810;2022-07-29T10:43:57;95219.41;;;32.52;33.42
55466;BME280;41329;41.594;23.810;2022-07-29T10:46:24;95211.34;;;32.56;33.90
55466;BME280;41329;41.594;23.810;2022-07-29T10:59:39;95191.56;;;32.69;33.93
55466;BME280;41329;41.594;23.810;2022-07-29T11:05:03;95198.31;;;32.66;30.85
55466;BME280;41329;41.594;23.810;2022-07-29T11:07:30;95193.88;;;32.76;32.00
55466;BME280;41329;41.594;23.810;2022-07-29T11:20:53;95175.44;;;33.32;29.07
55466;BME280;41329;41.594;23.810;2022-07-29T11:33:55;95174.25;;;33.85;28.70
55466;BME280;41329;41.594;23.810;2022-07-29T11:36:21;95168.78;;;33.81;28.50
55466;BME280;41329;41.594;23.810;2022-07-29T11:38:47;95168.22;;;33.77;29.58
55466;BME280;41329;41.594;23.810;2022-07-29T11:41:23;95169.53;;;33.93;28.61
55466;BME280;41329;41.594;23.810;2022-07-29T11:43:55;95160.63;;;33.96;28.90
55466;BME280;41329;41.594;23.810;2022-07-29T11:46:49;95165.00;;;34.08;29.85
55466;BME280;41329;41.594;23.810;2022-07-29T11:49:23;95175.59;;;34.35;30.14
55466;BME280;41329;41.594;23.810;2022-07-29T11:51:56;95160.97;;;34.39;29.68
55466;BME280;41329;41.594;23.810;2022-07-29T11:54:31;95156.75;;;34.45;28.61
55466;BME280;41329;41.594;23.810;2022-07-29T11:56:58;95163.03;;;34.38;26.14
55466;BME280;41329;41.594;23.810;2022-07-29T11:59:24;95150.53;;;34.36;28.76
55466;BME280;41329;41.594;23.810;2022-07-29T12:01:57;95156.75;;;34.45;27.98
55466;BME280;41329;41.594;23.810;2022-07-29T12:04:24;95157.00;;;34.42;27.44
55466;BME280;41329;41.594;23.810;2022-07-29T12:06:53;95153.94;;;34.23;28.05
55466;BME280;41329;41.594;23.810;2022-07-29T12:09:20;95162.06;;;34.19;28.54
55466;BME280;41329;41.594;23.810;2022-07-29T12:11:47;95131.00;;;33.66;28.21
55466;BME280;41329;41.594;23.810;2022-07-29T12:14:29;95156.78;;;33.83;29.90
55466;BME280;41329;41.594;23.810;2022-07-29T12:16:56;95170.34;;;33.71;29.81
55466;BME280;41329;41.594;23.810;2022-07-29T12:19:22;95181.03;;;33.82;31.08
55466;BME280;41329;41.594;23.810;2022-07-29T12:21:52;95169.56;;;33.87;29.37
55466;BME280;41329;41.594;23.810;2022-07-29T12:24:18;95161.38;;;34.02;29.11
55466;BME280;41329;41.594;23.810;2022-07-29T12:26:54;95164.72;;;34.12;30.32
55466;BME280;41329;41.594;23.810;2022-07-29T12:29:20;95174.13;;;34.12;29.94
55466;BME280;41329;41.594;23.810;2022-07-29T12:31:51;95160.41;;;33.94;29.77
55466;BME280;41329;41.594;23.810;2022-07-29T12:34:20;95163.59;;;33.63;29.78
55466;BME280;41329;41.594;23.810;2022-07-29T12:36:48;95163.81;;;33.76;31.29
55466;BME280;41329;41.594;23.810;2022-07-29T12:39:15;95157.91;;;33.52;31.61
55466;BME280;41329;41.594;23.810;2022-07-29T12:41:41;95146.97;;;33.34;32.68
55466;BME280;41329;41.594;23.810;2022-07-29T12:44:07;95157.41;;;33.48;33.17
55466;BME280;41329;41.594;23.810;2022-07-29T12:46:32;95151.91;;;33.50;32.19
55466;BME280;41329;41.594;23.810;2022-07-29T12:48:59;95139.16;;;33.40;32.22
55466;BME280;41329;41.594;23.810;2022-07-29T12:51:33;95150.84;;;33.53;33.35
55466;BME280;41329;41.594;23.810;2022-07-29T12:54:10;95150.56;;;33.62;33.40
55466;BME280;41329;41.594;23.810;2022-07-29T12:56:42;95147.72;;;33.57;33.17
55466;BME280;41329;41.594;23.810;2022-07-29T12:59:19;95143.78;;;33.65;33.04
55466;BME280;41329;41.594;23.810;2022-07-29T13:01:46;95142.75;;;33.63;33.22
55466;BME280;41329;41.594;23.810;2022-07-29T13:04:25;95133.34;;;33.68;33.99
55466;BME280;41329;41.594;23.810;2022-07-29T13:07:05;95131.19;;;33.90;35.50
55466;BME280;41329;41.594;23.810;2022-07-29T13:09:44;95132.28;;;34.22;32.60
55466;BME280;41329;41.594;23.810;2022-07-29T13:12:14;95115.78;;;34.34;32.98
55466;BME280;41329;41.594;23.810;2022-07-29T13:14:44;95132.56;;;34.65;32.61
55466;BME280;41329;41.594;23.810;2022-07-29T13:17:20;95127.06;;;34.61;31.27
55466;BME280;41329;41.594;23.810;2022-07-29T13:19:52;95123.06;;;34.40;31.40
55466;BME280;41329;41.594;23.810;2022-07-29T13:22:23;95129.53;;;34.52;31.55
55466;BME280;41329;41.594;23.810;2022-07-29T13:25:00;95126.00;;;34.29;30.45
55466;BME280;41329;41.594;23.810;2022-07-29T13:27:29;95128.59;;;33.81;31.36
55466;BME280;41329;41.594;23.810;2022-07-29T13:29:58;95120.53;;;33.74;32.35
55466;BME280;41329;41.594;23.810;2022-07-29T13:32:26;95091.34;;;33.59;32.98
55466;BME280;41329;41.594;23.810;2022-07-29T13:34:52;95122.78;;;33.98;33.03
55466;BME280;41329;41.594;23.810;2022-07-29T13:37:19;95103.09;;;34.13;33.97
55466;BME280;41329;41.594;23.810;2022-07-29T13:39:45;95115.25;;;34.35;32.60
55466;BME280;41329;41.594;23.810;2022-07-29T13:42:10;95117.56;;;34.42;32.26
55466;BME280;41329;41.594;23.810;2022-07-29T13:44:39;95111.19;;;34.55;32.62
55466;BME280;41329;41.594;23.810;2022-07-29T13:47:06;95109.06;;;34.61;31.98
55466;BME280;41329;41.594;23.810;2022-07-29T13:49:31;95108.00;;;34.64;32.24
55466;BME280;41329;41.594;23.810;2022-07-29T13:51:57;95110.06;;;34.69;33.50